sensor_id;sensor_type;location;lat;lon;timestamp;P1;durP1;ratioP1;P2;durP2;ratioP2
48767;SDS011;34933;40.968;14.538;2022-08-18T00:00:35;25.70;;;5.70;;
48767;SDS011;34933;40.968;14.538;2022-08-18T00:03:20;25.25;;;5.72;;
48767;SDS011;34933;40.968;14.538;2022-08-18T00:06:05;21.73;;;4.85;;
48767;SDS011;34933;40.968;14.538;2022-08-18T00:08:50;21.48;;;4.57;;
48767;SDS011;34933;40.968;14.538;2022-08-18T00:11:36;31.70;;;5.15;;
48767;SDS011;34933;40.968;14.538;2022-08-18T00:14:23;22.60;;;5.03;;
48767;SDS011;34933;40.968;14.538;2022-08-18T00:17:08;25.05;;;5.15;;
48767;SDS011;34933;40.968;14.538;2022-08-18T00:19:52;20.40;;;4.80;;
48767;SDS011;34933;40.968;14.538;2022-08-18T00:22:37;20.40;;;5.32;;
48767;SDS011;34933;40.968;14.538;2022-08-18T00:25:25;24.35;;;5.00;;
48767;SDS011;34933;40.968;14.538;2022-08-18T00:28:10;20.00;;;4.43;;
48767;SDS011;34933;40.968;14.538;2022-08-18T00:30:57;30.23;;;4.80;;
48767;SDS011;34933;40.968;14.538;2022-08-18T00:33:41;33.47;;;5.25;;
48767;SDS011;34933;40.968;14.538;2022-08-18T00:36:26;28.50;;;4.90;;
48767;SDS011;34933;40.968;14.538;2022-08-18T00:39:11;30.58;;;5.38;;
48767;SDS011;34933;40.968;14.538;2022-08-18T00:41:55;21.65;;;5.07;;
48767;SDS011;34933;40.968;14.538;2022-08-18T00:44:40;21.50;;;5.75;;
48767;SDS011;34933;40.968;14.538;2022-08-18T00:47:24;21.40;;;5.45;;
48767;SDS011;34933;40.968;14.538;2022-08-18T00:50:14;22.73;;;3.92;;
48767;SDS011;34933;40.968;14.538;2022-08-18T00:53:02;18.63;;;3.97;;
48767;SDS011;34933;40.968;14.538;2022-08-18T00:55:52;27.48;;;5.40;;
48767;SDS011;34933;40.968;14.538;2022-08-18T00:58:39;21.92;;;4.32;;
48767;SDS011;34933;40.968;14.538;2022-08-18T01:01:28;17.75;;;4.25;;
48767;SDS011;34933;40.968;14.538;2022-08-18T01:04:17;27.20;;;4.65;;
48767;SDS011;34933;40.968;14.538;2022-08-18T01:07:28;24.30;;;4.53;;
48767;SDS011;34933;40.968;14.538;2022-08-18T01:10:28;21.42;;;4.45;;
48767;SDS011;34933;40.968;14.538;2022-08-18T01:13:17;29.23;;;5.22;;
48767;SDS011;34933;40.968;14.538;2022-08-18T01:16:02;24.20;;;5.35;;
48767;SDS011;34933;40.968;14.538;2022-08-18T01:19:07;15.68;;;4.28;;
48767;SDS011;34933;40.968;14.538;2022-08-18T01:25:10;23.42;;;4.97;;
48767;SDS011;34933;40.968;14.538;2022-08-18T01:28:13;30.35;;;6.13;;
48767;SDS011;34933;40.968;14.538;2022-08-18T01:31:01;20.35;;;4.32;;
48767;SDS011;34933;40.968;14.538;2022-08-18T01:33:47;24.52;;;5.05;;
48767;SDS011;34933;40.968;14.538;2022-08-18T01:36:32;27.15;;;4.95;;
48767;SDS011;34933;40.968;14.538;2022-08-18T01:39:20;18.60;;;4.20;;
48767;SDS011;34933;40.968;14.538;2022-08-18T01:42:06;18.85;;;4.55;;
48767;SDS011;34933;40.968;14.538;2022-08-18T01:44:51;26.45;;;5.28;;
48767;SDS011;34933;40.968;14.538;2022-08-18T01:47:35;22.65;;;5.55;;
48767;SDS011;34933;40.968;14.538;2022-08-18T01:50:21;26.20;;;4.88;;
48767;SDS011;34933;40.968;14.538;2022-08-18T01:53:07;22.23;;;5.07;;
48767;SDS011;34933;40.968;14.538;2022-08-18T01:55:54;27.13;;;4.85;;
48767;SDS011;34933;40.968;14.538;2022-08-18T01:58:38;23.98;;;5.20;;
48767;SDS011;34933;40.968;14.538;2022-08-18T02:01:23;17.40;;;5.10;;
48767;SDS011;34933;40.968;14.538;2022-08-18T02:04:10;23.20;;;4.43;;
48767;SDS011;34933;40.968;14.538;2022-08-18T02:06:55;28.40;;;5.25;;
48767;SDS011;34933;40.968;14.538;2022-08-18T02:09:41;23.95;;;4.85;;
48767;SDS011;34933;40.968;14.538;2022-08-18T02:12:26;22.92;;;5.15;;
48767;SDS011;34933;40.968;14.538;2022-08-18T02:15:11;18.50;;;4.13;;
48767;SDS011;34933;40.968;14.538;2022-08-18T02:17:56;20.90;;;4.38;;
48767;SDS011;34933;40.968;14.538;2022-08-18T02:20:40;25.13;;;3.95;;
48767;SDS011;34933;40.968;14.538;2022-08-18T02:23:25;20.58;;;3.63;;
48767;SDS011;34933;40.968;14.538;2022-08-18T02:26:11;26.92;;;4.55;;
48767;SDS011;34933;40.968;14.538;2022-08-18T02:28:57;24.35;;;5.03;;
48767;SDS011;34933;40.968;14.538;2022-08-18T02:31:42;21.88;;;4.80;;
48767;SDS011;34933;40.968;14.538;2022-08-18T02:34:26;20.77;;;4.53;;
48767;SDS011;34933;40.968;14.538;2022-08-18T02:37:11;19.45;;;4.80;;
48767;SDS011;34933;40.968;14.538;2022-08-18T02:39:56;26.35;;;5.38;;
48767;SDS011;34933;40.968;14.538;2022-08-18T02:42:42;23.77;;;4.72;;
48767;SDS011;34933;40.968;14.538;2022-08-18T02:45:27;23.60;;;4.63;;
48767;SDS011;34933;40.968;14.538;2022-08-18T02:48:12;31.92;;;6.25;;
48767;SDS011;34933;40.968;14.538;2022-08-18T02:53:47;25.60;;;4.10;;
48767;SDS011;34933;40.968;14.538;2022-08-18T02:56:31;21.50;;;5.50;;
48767;SDS011;34933;40.968;14.538;2022-08-18T02:59:17;17.55;;;4.53;;
48767;SDS011;34933;40.968;14.538;2022-08-18T03:02:10;25.25;;;4.22;;
48767;SDS011;34933;40.968;14.538;2022-08-18T03:04:55;22.73;;;4.70;;
48767;SDS011;34933;40.968;14.538;2022-08-18T03:07:40;26.63;;;4.05;;
48767;SDS011;34933;40.968;14.538;2022-08-18T03:10:24;19.88;;;4.07;;
48767;SDS011;34933;40.968;14.538;2022-08-18T03:13:09;27.25;;;6.70;;
48767;SDS011;34933;40.968;14.538;2022-08-18T03:15:54;20.83;;;5.35;;
48767;SDS011;34933;40.968;14.538;2022-08-18T03:18:40;25.45;;;4.15;;
48767;SDS011;34933;40.968;14.538;2022-08-18T03:21:26;24.08;;;5.35;;
48767;SDS011;34933;40.968;14.538;2022-08-18T03:24:12;22.90;;;4.63;;
48767;SDS011;34933;40.968;14.538;2022-08-18T03:26:57;21.48;;;3.65;;
48767;SDS011;34933;40.968;14.538;2022-08-18T03:29:41;25.55;;;4.93;;
48767;SDS011;34933;40.968;14.538;2022-08-18T03:32:26;23.58;;;4.68;;
48767;SDS011;34933;40.968;14.538;2022-08-18T03:35:11;22.33;;;5.13;;
48767;SDS011;34933;40.968;14.538;2022-08-18T03:37:57;32.20;;;5.90;;
48767;SDS011;34933;40.968;14.538;2022-08-18T03:40:42;19.88;;;3.63;;
48767;SDS011;34933;40.968;14.538;2022-08-18T03:43:33;21.35;;;4.25;;
48767;SDS011;34933;40.968;14.538;2022-08-18T03:46:18;24.63;;;4.97;;
48767;SDS011;34933;40.968;14.538;2022-08-18T03:49:04;27.45;;;4.50;;
48767;SDS011;34933;40.968;14.538;2022-08-18T03:51:49;28.45;;;4.65;;
48767;SDS011;34933;40.968;14.538;2022-08-18T03:54:34;23.92;;;4.72;;
48767;SDS011;34933;40.968;14.538;2022-08-18T03:57:19;19.85;;;3.85;;
48767;SDS011;34933;40.968;14.538;2022-08-18T04:00:04;25.30;;;4.68;;
48767;SDS011;34933;40.968;14.538;2022-08-18T04:02:49;23.75;;;4.68;;
48767;SDS011;34933;40.968;14.538;2022-08-18T04:05:37;19.27;;;4.38;;
48767;SDS011;34933;40.968;14.538;2022-08-18T04:08:22;19.17;;;4.25;;
48767;SDS011;34933;40.968;14.538;2022-08-18T04:11:09;25.40;;;4.38;;
48767;SDS011;34933;40.968;14.538;2022-08-18T04:13:55;29.15;;;4.78;;
48767;SDS011;34933;40.968;14.538;2022-08-18T04:16:43;24.00;;;5.07;;
48767;SDS011;34933;40.968;14.538;2022-08-18T04:19:28;23.35;;;4.72;;
48767;SDS011;34933;40.968;14.538;2022-08-18T04:22:13;37.55;;;5.43;;
48767;SDS011;34933;40.968;14.538;2022-08-18T04:24:59;25.73;;;4.35;;
48767;SDS011;34933;40.968;14.538;2022-08-18T04:27:44;30.67;;;5.03;;
48767;SDS011;34933;40.968;14.538;2022-08-18T04:30:29;25.38;;;4.88;;
48767;SDS011;34933;40.968;14.538;2022-08-18T04:33:13;17.48;;;4.22;;
48767;SDS011;34933;40.968;14.538;2022-08-18T04:35:58;20.08;;;4.10;;
48767;SDS011;34933;40.968;14.538;2022-08-18T04:38:50;27.48;;;5.75;;
48767;SDS011;34933;40.968;14.538;2022-08-18T04:41:35;24.30;;;4.35;;
48767;SDS011;34933;40.968;14.538;2022-08-18T04:44:21;26.90;;;4.68;;
48767;SDS011;34933;40.968;14.538;2022-08-18T04:47:06;20.02;;;5.78;;
48767;SDS011;34933;40.968;14.538;2022-08-18T04:49:51;21.42;;;4.82;;
48767;SDS011;34933;40.968;14.538;2022-08-18T04:52:36;29.08;;;7.13;;
48767;SDS011;34933;40.968;14.538;2022-08-18T04:55:44;28.83;;;6.28;;
48767;SDS011;34933;40.968;14.538;2022-08-18T04:58:30;35.85;;;9.70;;
48767;SDS011;34933;40.968;14.538;2022-08-18T05:01:15;32.75;;;10.43;;
48767;SDS011;34933;40.968;14.538;2022-08-18T05:04:01;28.30;;;6.70;;
48767;SDS011;34933;40.968;14.538;2022-08-18T05:06:46;23.35;;;6.38;;
48767;SDS011;34933;40.968;14.538;2022-08-18T05:09:30;18.02;;;5.60;;
48767;SDS011;34933;40.968;14.538;2022-08-18T05:12:15;32.17;;;5.45;;
48767;SDS011;34933;40.968;14.538;2022-08-18T05:14:59;30.15;;;5.72;;
48767;SDS011;34933;40.968;14.538;2022-08-18T05:17:44;25.33;;;5.00;;
48767;SDS011;34933;40.968;14.538;2022-08-18T05:20:29;19.77;;;4.88;;
48767;SDS011;34933;40.968;14.538;2022-08-18T05:23:13;32.58;;;5.68;;
48767;SDS011;34933;40.968;14.538;2022-08-18T05:26:00;24.55;;;5.47;;
48767;SDS011;34933;40.968;14.538;2022-08-18T05:28:46;29.00;;;8.85;;
48767;SDS011;34933;40.968;14.538;2022-08-18T05:31:31;29.55;;;7.75;;
48767;SDS011;34933;40.968;14.538;2022-08-18T05:34:17;18.85;;;6.03;;
48767;SDS011;34933;40.968;14.538;2022-08-18T05:40:22;22.77;;;5.82;;
48767;SDS011;34933;40.968;14.538;2022-08-18T05:43:08;32.35;;;5.85;;
48767;SDS011;34933;40.968;14.538;2022-08-18T05:45:53;21.55;;;6.15;;
48767;SDS011;34933;40.968;14.538;2022-08-18T05:48:39;23.48;;;6.80;;
48767;SDS011;34933;40.968;14.538;2022-08-18T05:51:28;36.13;;;8.93;;
48767;SDS011;34933;40.968;14.538;2022-08-18T05:54:18;21.30;;;6.07;;
48767;SDS011;34933;40.968;14.538;2022-08-18T05:57:23;27.83;;;9.52;;
48767;SDS011;34933;40.968;14.538;2022-08-18T06:00:11;38.92;;;9.38;;
48767;SDS011;34933;40.968;14.538;2022-08-18T06:06:04;31.73;;;8.82;;
48767;SDS011;34933;40.968;14.538;2022-08-18T06:11:46;31.77;;;9.13;;
48767;SDS011;34933;40.968;14.538;2022-08-18T06:14:32;38.28;;;11.60;;
48767;SDS011;34933;40.968;14.538;2022-08-18T06:20:33;41.88;;;12.73;;
48767;SDS011;34933;40.968;14.538;2022-08-18T06:23:33;41.03;;;13.00;;
48767;SDS011;34933;40.968;14.538;2022-08-18T06:29:31;61.60;;;23.73;;
48767;SDS011;34933;40.968;14.538;2022-08-18T06:35:48;68.82;;;26.08;;
48767;SDS011;34933;40.968;14.538;2022-08-18T06:38:46;68.68;;;24.70;;
48767;SDS011;34933;40.968;14.538;2022-08-18T06:41:44;52.67;;;22.48;;
48767;SDS011;34933;40.968;14.538;2022-08-18T06:44:38;55.70;;;21.17;;
48767;SDS011;34933;40.968;14.538;2022-08-18T06:47:39;50.65;;;19.02;;
48767;SDS011;34933;40.968;14.538;2022-08-18T06:50:34;44.83;;;16.83;;
48767;SDS011;34933;40.968;14.538;2022-08-18T06:59:32;40.15;;;15.60;;
48767;SDS011;34933;40.968;14.538;2022-08-18T07:05:14;39.80;;;14.57;;
48767;SDS011;34933;40.968;14.538;2022-08-18T07:11:11;45.10;;;19.73;;
48767;SDS011;34933;40.968;14.538;2022-08-18T07:13:56;46.65;;;19.10;;
48767;SDS011;34933;40.968;14.538;2022-08-18T07:17:11;44.55;;;16.48;;
48767;SDS011;34933;40.968;14.538;2022-08-18T07:20:03;43.63;;;15.90;;
48767;SDS011;34933;40.968;14.538;2022-08-18T07:23:07;34.92;;;13.77;;
48767;SDS011;34933;40.968;14.538;2022-08-18T07:26:01;35.40;;;12.60;;
48767;SDS011;34933;40.968;14.538;2022-08-18T07:28:49;43.03;;;15.65;;
48767;SDS011;34933;40.968;14.538;2022-08-18T07:31:41;33.88;;;13.90;;
48767;SDS011;34933;40.968;14.538;2022-08-18T07:34:32;38.22;;;14.45;;
48767;SDS011;34933;40.968;14.538;2022-08-18T07:37:55;40.97;;;15.57;;
48767;SDS011;34933;40.968;14.538;2022-08-18T07:41:35;59.75;;;17.15;;
48767;SDS011;34933;40.968;14.538;2022-08-18T07:43:59;49.30;;;17.35;;
48767;SDS011;34933;40.968;14.538;2022-08-18T07:49:45;37.40;;;15.02;;
48767;SDS011;34933;40.968;14.538;2022-08-18T07:52:32;41.50;;;12.63;;
48767;SDS011;34933;40.968;14.538;2022-08-18T07:55:40;28.25;;;12.05;;
48767;SDS011;34933;40.968;14.538;2022-08-18T07:59:14;40.92;;;11.07;;
48767;SDS011;34933;40.968;14.538;2022-08-18T08:01:47;39.22;;;10.70;;
48767;SDS011;34933;40.968;14.538;2022-08-18T08:04:43;30.35;;;10.27;;
48767;SDS011;34933;40.968;14.538;2022-08-18T08:07:39;40.13;;;12.40;;
48767;SDS011;34933;40.968;14.538;2022-08-18T08:10:43;31.08;;;12.70;;
48767;SDS011;34933;40.968;14.538;2022-08-18T08:32:01;41.00;;;15.48;;
48767;SDS011;34933;40.968;14.538;2022-08-18T08:34:51;39.78;;;15.35;;
48767;SDS011;34933;40.968;14.538;2022-08-18T08:37:55;39.10;;;12.30;;
48767;SDS011;34933;40.968;14.538;2022-08-18T08:40:51;41.05;;;10.98;;
48767;SDS011;34933;40.968;14.538;2022-08-18T08:43:48;47.60;;;27.92;;
48767;SDS011;34933;40.968;14.538;2022-08-18T08:46:56;36.65;;;9.70;;
48767;SDS011;34933;40.968;14.538;2022-08-18T08:49:50;31.30;;;8.73;;
48767;SDS011;34933;40.968;14.538;2022-08-18T08:55:43;38.22;;;10.27;;
48767;SDS011;34933;40.968;14.538;2022-08-18T08:58:53;33.33;;;10.63;;
48767;SDS011;34933;40.968;14.538;2022-08-18T09:02:07;39.17;;;11.27;;
48767;SDS011;34933;40.968;14.538;2022-08-18T09:05:23;40.60;;;11.68;;
48767;SDS011;34933;40.968;14.538;2022-08-18T09:14:09;50.90;;;13.27;;
48767;SDS011;34933;40.968;14.538;2022-08-18T09:20:25;39.17;;;10.63;;
48767;SDS011;34933;40.968;14.538;2022-08-18T09:23:23;37.47;;;10.85;;
48767;SDS011;34933;40.968;14.538;2022-08-18T09:29:52;39.38;;;11.48;;
48767;SDS011;34933;40.968;14.538;2022-08-18T09:32:38;33.17;;;10.77;;
48767;SDS011;34933;40.968;14.538;2022-08-18T09:35:54;33.42;;;11.02;;
48767;SDS011;34933;40.968;14.538;2022-08-18T09:42:08;60.95;;;14.07;;
48767;SDS011;34933;40.968;14.538;2022-08-18T09:44:59;59.22;;;15.18;;
48767;SDS011;34933;40.968;14.538;2022-08-18T09:47:56;55.42;;;14.35;;
48767;SDS011;34933;40.968;14.538;2022-08-18T10:11:22;48.25;;;16.63;;
48767;SDS011;34933;40.968;14.538;2022-08-18T10:14:33;54.30;;;20.55;;
48767;SDS011;34933;40.968;14.538;2022-08-18T10:17:46;61.35;;;27.13;;
48767;SDS011;34933;40.968;14.538;2022-08-18T10:20:52;62.95;;;22.73;;
48767;SDS011;34933;40.968;14.538;2022-08-18T10:29:45;45.83;;;17.58;;
48767;SDS011;34933;40.968;14.538;2022-08-18T10:32:39;41.70;;;19.70;;
48767;SDS011;34933;40.968;14.538;2022-08-18T10:41:25;46.78;;;17.40;;
48767;SDS011;34933;40.968;14.538;2022-08-18T10:44:12;55.67;;;18.95;;
48767;SDS011;34933;40.968;14.538;2022-08-18T10:46:59;55.90;;;24.42;;
48767;SDS011;34933;40.968;14.538;2022-08-18T10:49:46;53.13;;;22.67;;
48767;SDS011;34933;40.968;14.538;2022-08-18T10:58:45;37.30;;;10.98;;
48767;SDS011;34933;40.968;14.538;2022-08-18T11:01:43;38.75;;;11.32;;
48767;SDS011;34933;40.968;14.538;2022-08-18T11:04:50;39.55;;;9.77;;
48767;SDS011;34933;40.968;14.538;2022-08-18T11:07:36;35.80;;;9.25;;
48767;SDS011;34933;40.968;14.538;2022-08-18T11:10:39;33.05;;;8.15;;
48767;SDS011;34933;40.968;14.538;2022-08-18T11:19:26;33.00;;;8.40;;
48767;SDS011;34933;40.968;14.538;2022-08-18T11:22:21;35.95;;;9.02;;
48767;SDS011;34933;40.968;14.538;2022-08-18T11:25:19;36.70;;;8.43;;
48767;SDS011;34933;40.968;14.538;2022-08-18T11:28:17;31.30;;;6.95;;
48767;SDS011;34933;40.968;14.538;2022-08-18T11:31:03;29.02;;;6.85;;
48767;SDS011;34933;40.968;14.538;2022-08-18T11:33:48;37.58;;;6.60;;
48767;SDS011;34933;40.968;14.538;2022-08-18T11:36:33;28.17;;;7.30;;
48767;SDS011;34933;40.968;14.538;2022-08-18T11:39:18;30.35;;;7.22;;
48767;SDS011;34933;40.968;14.538;2022-08-18T11:42:02;30.80;;;6.57;;
48767;SDS011;34933;40.968;14.538;2022-08-18T11:44:53;28.63;;;5.85;;
48767;SDS011;34933;40.968;14.538;2022-08-18T11:56:47;31.90;;;6.90;;
48767;SDS011;34933;40.968;14.538;2022-08-18T11:59:32;28.33;;;6.65;;
48767;SDS011;34933;40.968;14.538;2022-08-18T12:02:18;24.35;;;7.20;;
48767;SDS011;34933;40.968;14.538;2022-08-18T12:05:06;32.03;;;7.35;;
48767;SDS011;34933;40.968;14.538;2022-08-18T12:07:50;27.80;;;6.75;;
48767;SDS011;34933;40.968;14.538;2022-08-18T12:10:35;35.08;;;6.53;;
48767;SDS011;34933;40.968;14.538;2022-08-18T12:13:21;33.72;;;6.50;;
48767;SDS011;34933;40.968;14.538;2022-08-18T12:16:08;30.23;;;6.60;;
48767;SDS011;34933;40.968;14.538;2022-08-18T12:18:55;32.97;;;6.68;;
48767;SDS011;34933;40.968;14.538;2022-08-18T12:21:50;32.72;;;7.32;;
48767;SDS011;34933;40.968;14.538;2022-08-18T12:24:37;31.65;;;7.07;;
48767;SDS011;34933;40.968;14.538;2022-08-18T12:27:22;31.45;;;6.88;;
48767;SDS011;34933;40.968;14.538;2022-08-18T12:30:08;28.98;;;7.22;;
48767;SDS011;34933;40.968;14.538;2022-08-18T12:32:55;36.10;;;7.13;;
48767;SDS011;34933;40.968;14.538;2022-08-18T12:35:40;33.65;;;7.20;;
48767;SDS011;34933;40.968;14.538;2022-08-18T12:38:25;32.88;;;6.50;;
48767;SDS011;34933;40.968;14.538;2022-08-18T12:41:10;21.10;;;5.00;;
48767;SDS011;34933;40.968;14.538;2022-08-18T12:43:55;28.15;;;7.07;;
48767;SDS011;34933;40.968;14.538;2022-08-18T12:46:41;31.20;;;6.80;;
48767;SDS011;34933;40.968;14.538;2022-08-18T12:49:26;29.55;;;8.48;;
48767;SDS011;34933;40.968;14.538;2022-08-18T12:52:11;35.45;;;7.93;;
48767;SDS011;34933;40.968;14.538;2022-08-18T12:54:56;30.42;;;7.32;;
48767;SDS011;34933;40.968;14.538;2022-08-18T12:57:41;27.90;;;6.97;;
48767;SDS011;34933;40.968;14.538;2022-08-18T13:00:26;30.63;;;6.68;;
48767;SDS011;34933;40.968;14.538;2022-08-18T13:03:11;25.45;;;6.10;;
48767;SDS011;34933;40.968;14.538;2022-08-18T13:05:55;29.27;;;7.32;;
48767;SDS011;34933;40.968;14.538;2022-08-18T13:08:40;29.42;;;6.47;;
48767;SDS011;34933;40.968;14.538;2022-08-18T13:11:25;24.67;;;6.50;;
48767;SDS011;34933;40.968;14.538;2022-08-18T13:14:10;28.60;;;6.55;;
48767;SDS011;34933;40.968;14.538;2022-08-18T13:16:55;21.30;;;5.85;;
48767;SDS011;34933;40.968;14.538;2022-08-18T13:19:40;25.77;;;6.20;;
48767;SDS011;34933;40.968;14.538;2022-08-18T13:22:25;34.72;;;6.70;;
48767;SDS011;34933;40.968;14.538;2022-08-18T13:25:11;31.20;;;6.10;;
48767;SDS011;34933;40.968;14.538;2022-08-18T13:27:58;25.67;;;6.03;;
48767;SDS011;34933;40.968;14.538;2022-08-18T13:30:43;25.60;;;6.53;;
48767;SDS011;34933;40.968;14.538;2022-08-18T13:33:28;26.45;;;6.18;;
48767;SDS011;34933;40.968;14.538;2022-08-18T13:36:15;23.90;;;6.47;;
48767;SDS011;34933;40.968;14.538;2022-08-18T13:39:00;27.77;;;6.07;;
48767;SDS011;34933;40.968;14.538;2022-08-18T13:41:45;25.30;;;6.05;;
48767;SDS011;34933;40.968;14.538;2022-08-18T13:44:31;28.35;;;5.93;;
48767;SDS011;34933;40.968;14.538;2022-08-18T13:47:16;27.88;;;5.95;;
48767;SDS011;34933;40.968;14.538;2022-08-18T13:50:01;32.92;;;7.40;;
48767;SDS011;34933;40.968;14.538;2022-08-18T13:52:45;31.30;;;7.55;;
48767;SDS011;34933;40.968;14.538;2022-08-18T13:55:30;31.00;;;6.43;;
48767;SDS011;34933;40.968;14.538;2022-08-18T13:58:15;25.30;;;6.50;;
48767;SDS011;34933;40.968;14.538;2022-08-18T14:01:01;23.38;;;7.30;;
48767;SDS011;34933;40.968;14.538;2022-08-18T14:03:48;29.63;;;6.30;;
48767;SDS011;34933;40.968;14.538;2022-08-18T14:06:32;36.28;;;7.10;;
48767;SDS011;34933;40.968;14.538;2022-08-18T14:09:17;32.88;;;6.65;;
48767;SDS011;34933;40.968;14.538;2022-08-18T14:12:03;23.83;;;6.78;;
48767;SDS011;34933;40.968;14.538;2022-08-18T14:15:00;22.25;;;6.30;;
48767;SDS011;34933;40.968;14.538;2022-08-18T14:17:45;29.35;;;7.45;;
48767;SDS011;34933;40.968;14.538;2022-08-18T14:20:29;27.55;;;6.10;;
48767;SDS011;34933;40.968;14.538;2022-08-18T14:23:36;31.20;;;6.70;;
48767;SDS011;34933;40.968;14.538;2022-08-18T14:26:49;27.95;;;6.75;;
48767;SDS011;34933;40.968;14.538;2022-08-18T14:29:34;26.10;;;6.57;;
48767;SDS011;34933;40.968;14.538;2022-08-18T14:32:20;32.42;;;5.85;;
48767;SDS011;34933;40.968;14.538;2022-08-18T14:35:07;33.92;;;6.47;;
48767;SDS011;34933;40.968;14.538;2022-08-18T14:37:53;26.50;;;7.07;;
48767;SDS011;34933;40.968;14.538;2022-08-18T14:40:38;21.10;;;5.57;;
48767;SDS011;34933;40.968;14.538;2022-08-18T14:43:25;27.20;;;6.03;;
48767;SDS011;34933;40.968;14.538;2022-08-18T14:46:11;32.72;;;6.10;;
48767;SDS011;34933;40.968;14.538;2022-08-18T14:48:56;30.23;;;6.55;;
48767;SDS011;34933;40.968;14.538;2022-08-18T14:51:41;28.55;;;6.55;;
48767;SDS011;34933;40.968;14.538;2022-08-18T14:54:26;25.73;;;6.13;;
48767;SDS011;34933;40.968;14.538;2022-08-18T14:57:11;34.65;;;8.40;;
48767;SDS011;34933;40.968;14.538;2022-08-18T14:59:56;37.30;;;8.00;;
48767;SDS011;34933;40.968;14.538;2022-08-18T15:02:41;29.13;;;7.20;;
48767;SDS011;34933;40.968;14.538;2022-08-18T15:05:27;39.33;;;7.93;;
48767;SDS011;34933;40.968;14.538;2022-08-18T15:08:15;26.98;;;6.82;;
48767;SDS011;34933;40.968;14.538;2022-08-18T15:11:02;32.97;;;6.55;;
48767;SDS011;34933;40.968;14.538;2022-08-18T15:13:49;26.30;;;6.10;;
48767;SDS011;34933;40.968;14.538;2022-08-18T15:16:34;28.65;;;7.50;;
48767;SDS011;34933;40.968;14.538;2022-08-18T15:19:19;31.27;;;7.80;;
48767;SDS011;34933;40.968;14.538;2022-08-18T15:22:05;33.92;;;10.52;;
48767;SDS011;34933;40.968;14.538;2022-08-18T15:25:08;29.27;;;10.05;;
48767;SDS011;34933;40.968;14.538;2022-08-18T15:28:19;34.08;;;7.22;;
48767;SDS011;34933;40.968;14.538;2022-08-18T15:31:05;29.00;;;7.55;;
48767;SDS011;34933;40.968;14.538;2022-08-18T15:33:50;33.70;;;6.72;;
48767;SDS011;34933;40.968;14.538;2022-08-18T15:36:34;28.58;;;6.38;;
48767;SDS011;34933;40.968;14.538;2022-08-18T15:39:19;24.65;;;7.22;;
48767;SDS011;34933;40.968;14.538;2022-08-18T15:42:07;25.90;;;7.20;;
48767;SDS011;34933;40.968;14.538;2022-08-18T15:44:53;29.70;;;7.20;;
48767;SDS011;34933;40.968;14.538;2022-08-18T15:47:38;28.20;;;6.88;;
48767;SDS011;34933;40.968;14.538;2022-08-18T15:50:24;30.63;;;7.32;;
48767;SDS011;34933;40.968;14.538;2022-08-18T15:53:09;27.95;;;6.82;;
48767;SDS011;34933;40.968;14.538;2022-08-18T15:55:54;33.78;;;7.20;;
48767;SDS011;34933;40.968;14.538;2022-08-18T15:58:39;25.00;;;5.75;;
48767;SDS011;34933;40.968;14.538;2022-08-18T16:01:24;20.67;;;6.70;;
48767;SDS011;34933;40.968;14.538;2022-08-18T16:04:08;24.02;;;6.65;;
48767;SDS011;34933;40.968;14.538;2022-08-18T16:06:53;28.27;;;8.15;;
48767;SDS011;34933;40.968;14.538;2022-08-18T16:09:38;27.40;;;6.75;;
48767;SDS011;34933;40.968;14.538;2022-08-18T16:12:23;45.05;;;20.42;;
48767;SDS011;34933;40.968;14.538;2022-08-18T16:15:08;29.15;;;7.43;;
48767;SDS011;34933;40.968;14.538;2022-08-18T16:17:53;30.92;;;6.97;;
48767;SDS011;34933;40.968;14.538;2022-08-18T16:20:39;28.83;;;8.13;;
48767;SDS011;34933;40.968;14.538;2022-08-18T16:23:23;26.65;;;6.97;;
48767;SDS011;34933;40.968;14.538;2022-08-18T16:26:08;27.00;;;7.65;;
48767;SDS011;34933;40.968;14.538;2022-08-18T16:28:57;32.83;;;7.43;;
48767;SDS011;34933;40.968;14.538;2022-08-18T16:31:42;36.33;;;17.60;;
48767;SDS011;34933;40.968;14.538;2022-08-18T16:34:27;22.10;;;6.63;;
48767;SDS011;34933;40.968;14.538;2022-08-18T16:37:11;26.90;;;7.68;;
48767;SDS011;34933;40.968;14.538;2022-08-18T16:39:56;38.53;;;7.68;;
48767;SDS011;34933;40.968;14.538;2022-08-18T16:42:41;27.45;;;6.85;;
48767;SDS011;34933;40.968;14.538;2022-08-18T16:45:26;27.98;;;8.85;;
48767;SDS011;34933;40.968;14.538;2022-08-18T16:48:11;41.67;;;13.80;;
48767;SDS011;34933;40.968;14.538;2022-08-18T16:50:56;36.58;;;12.68;;
48767;SDS011;34933;40.968;14.538;2022-08-18T16:53:41;39.60;;;14.48;;
48767;SDS011;34933;40.968;14.538;2022-08-18T16:56:27;53.22;;;18.42;;
48767;SDS011;34933;40.968;14.538;2022-08-18T16:59:13;37.90;;;14.65;;
48767;SDS011;34933;40.968;14.538;2022-08-18T17:02:16;31.75;;;12.90;;
48767;SDS011;34933;40.968;14.538;2022-08-18T17:05:19;50.55;;;15.98;;
48767;SDS011;34933;40.968;14.538;2022-08-18T17:08:04;44.22;;;14.70;;
48767;SDS011;34933;40.968;14.538;2022-08-18T17:10:48;41.67;;;14.98;;
48767;SDS011;34933;40.968;14.538;2022-08-18T17:13:34;47.92;;;18.23;;
48767;SDS011;34933;40.968;14.538;2022-08-18T17:16:20;52.92;;;19.30;;
48767;SDS011;34933;40.968;14.538;2022-08-18T17:19:07;63.78;;;21.75;;
48767;SDS011;34933;40.968;14.538;2022-08-18T17:21:51;57.00;;;22.00;;
48767;SDS011;34933;40.968;14.538;2022-08-18T17:24:36;65.05;;;22.13;;
48767;SDS011;34933;40.968;14.538;2022-08-18T17:27:21;60.10;;;18.45;;
48767;SDS011;34933;40.968;14.538;2022-08-18T17:30:18;52.80;;;21.08;;
48767;SDS011;34933;40.968;14.538;2022-08-18T17:33:07;61.92;;;20.17;;
48767;SDS011;34933;40.968;14.538;2022-08-18T17:35:59;64.72;;;20.63;;
48767;SDS011;34933;40.968;14.538;2022-08-18T17:38:50;61.88;;;19.75;;
48767;SDS011;34933;40.968;14.538;2022-08-18T17:41:41;49.05;;;18.02;;
48767;SDS011;34933;40.968;14.538;2022-08-18T17:44:44;51.35;;;18.05;;
48767;SDS011;34933;40.968;14.538;2022-08-18T17:47:31;44.55;;;14.50;;
48767;SDS011;34933;40.968;14.538;2022-08-18T17:50:39;50.38;;;13.73;;
48767;SDS011;34933;40.968;14.538;2022-08-18T17:54:08;49.50;;;15.85;;
48767;SDS011;34933;40.968;14.538;2022-08-18T17:57:08;48.42;;;17.45;;
48767;SDS011;34933;40.968;14.538;2022-08-18T18:00:13;55.08;;;19.48;;
48767;SDS011;34933;40.968;14.538;2022-08-18T18:03:00;92.68;;;47.45;;
48767;SDS011;34933;40.968;14.538;2022-08-18T18:05:56;87.57;;;36.92;;
48767;SDS011;34933;40.968;14.538;2022-08-18T18:08:56;76.85;;;27.25;;
48767;SDS011;34933;40.968;14.538;2022-08-18T18:11:44;60.30;;;18.75;;
48767;SDS011;34933;40.968;14.538;2022-08-18T18:14:35;58.22;;;20.73;;
48767;SDS011;34933;40.968;14.538;2022-08-18T18:17:26;56.45;;;17.98;;
48767;SDS011;34933;40.968;14.538;2022-08-18T18:20:30;58.95;;;18.77;;
48767;SDS011;34933;40.968;14.538;2022-08-18T18:23:24;53.33;;;15.20;;
48767;SDS011;34933;40.968;14.538;2022-08-18T18:29:31;44.15;;;13.73;;
48767;SDS011;34933;40.968;14.538;2022-08-18T18:35:11;51.53;;;16.80;;
48767;SDS011;34933;40.968;14.538;2022-08-18T18:38:02;52.50;;;15.63;;
48767;SDS011;34933;40.968;14.538;2022-08-18T18:43:51;40.97;;;12.38;;
48767;SDS011;34933;40.968;14.538;2022-08-18T18:46:49;42.53;;;11.90;;